Time;durP1;ratioP1;P1;durP2;ratioP2;P2;SDS_P1;SDS_P2;PMS_P1;PMS_P2;Temp;Humidity;BMP_temperature;BMP_pressure;BME280_temperature;BME280_humidity;BME280_pressure;Samples;Min_cycle;Max_cycle;Signal;HPM_P1;HPM_P2
2023/04/19 00:00:38;;;;;;;7.78;3.22;;;9.10;99.90;;;;;;4994886;28;20105;-75
2023/04/19 00:03:09;;;;;;;3.88;2.88;;;9.10;99.90;;;;;;4977874;28;20036;-78
2023/04/19 00:05:37;;;;;;;4.15;3.00;;;9.10;99.90;;;;;;4994424;28;20077;-76
2023/04/19 00:08:06;;;;;;;3.58;2.78;;;9.00;99.90;;;;;;4995046;28;20027;-77
2023/04/19 00:10:31;;;;;;;6.80;2.88;;;9.00;99.90;;;;;;4978033;28;20114;-76
2023/04/19 00:12:57;;;;;;;6.78;3.95;;;8.90;99.90;;;;;;4994216;28;20061;-75
2023/04/19 00:15:23;;;;;;;5.18;3.05;;;8.90;99.90;;;;;;4975710;28;20034;-78
2023/04/19 00:17:48;;;;;;;3.80;2.63;;;8.90;99.90;;;;;;4976929;28;20018;-76
2023/04/19 00:20:14;;;;;;;4.68;2.90;;;8.90;99.90;;;;;;4994732;28;20030;-76
2023/04/19 00:22:40;;;;;;;9.02;4.05;;;8.90;99.90;;;;;;4994301;28;20495;-77
2023/04/19 00:25:06;;;;;;;7.18;3.60;;;8.80;99.90;;;;;;4976922;28;20038;-76
2023/04/19 00:27:32;;;;;;;7.13;3.92;;;8.80;99.90;;;;;;4976623;28;20022;-76
2023/04/19 00:29:57;;;;;;;4.60;3.38;;;8.80;99.90;;;;;;4994667;28;20041;-77
2023/04/19 00:32:23;;;;;;;7.65;3.50;;;8.80;99.90;;;;;;4977258;28;20415;-77
2023/04/19 00:34:49;;;;;;;5.10;3.95;;;8.80;99.90;;;;;;4976892;28;20029;-77
2023/04/19 00:37:15;;;;;;;6.88;3.03;;;8.70;99.90;;;;;;4994394;28;20438;-77
2023/04/19 00:39:40;;;;;;;6.85;3.22;;;8.70;99.90;;;;;;4976919;28;20491;-76
2023/04/19 00:42:06;;;;;;;3.35;2.92;;;8.60;99.90;;;;;;4976826;28;20037;-77
2023/04/19 00:44:32;;;;;;;7.05;3.70;;;8.60;99.90;;;;;;4977046;28;20034;-77
2023/04/19 00:46:59;;;;;;;5.40;3.63;;;8.50;99.90;;;;;;4980360;28;20455;-78
2023/04/19 00:49:26;;;;;;;4.72;3.53;;;8.50;99.90;;;;;;4979896;28;20027;-76
2023/04/19 00:51:52;;;;;;;6.22;3.63;;;8.50;99.90;;;;;;4980796;28;20026;-75
2023/04/19 00:54:18;;;;;;;11.15;3.60;;;8.50;99.90;;;;;;4997705;28;20077;-77
2023/04/19 00:56:45;;;;;;;6.22;3.78;;;8.50;99.90;;;;;;4997057;28;20383;-77
2023/04/19 00:59:13;;;;;;;6.38;3.50;;;8.50;99.90;;;;;;4997929;28;20022;-75
2023/04/19 01:01:39;;;;;;;5.85;3.50;;;8.50;99.90;;;;;;4997939;28;20030;-77
2023/04/19 01:04:05;;;;;;;5.57;3.00;;;8.50;99.90;;;;;;4998088;28;20110;-75
2023/04/19 01:06:31;;;;;;;7.10;4.28;;;8.50;99.90;;;;;;4979625;28;20478;-77
2023/04/19 01:08:57;;;;;;;5.45;3.72;;;8.50;99.90;;;;;;4998113;28;20424;-75
2023/04/19 01:11:24;;;;;;;4.93;3.20;;;8.50;99.90;;;;;;4997726;28;20065;-77
2023/04/19 01:13:50;;;;;;;7.25;3.45;;;8.40;99.90;;;;;;4979284;28;20033;-77
2023/04/19 01:16:15;;;;;;;4.25;3.33;;;8.40;99.90;;;;;;4997130;28;20014;-77
2023/04/19 01:18:41;;;;;;;6.78;3.63;;;8.40;99.90;;;;;;4997665;28;20029;-78
2023/04/19 01:21:08;;;;;;;5.45;3.72;;;8.30;99.90;;;;;;4980410;28;20026;-76
2023/04/19 01:23:34;;;;;;;4.97;3.08;;;8.30;99.90;;;;;;4980070;28;20065;-77
2023/04/19 01:26:03;;;;;;;5.43;4.15;;;8.30;99.90;;;;;;4996597;28;20091;-77
2023/04/19 01:28:29;;;;;;;7.60;3.85;;;8.20;99.90;;;;;;4979836;28;20069;-75
2023/04/19 01:30:54;;;;;;;3.15;2.80;;;8.20;99.90;;;;;;4979699;28;20061;-77
2023/04/19 01:33:21;;;;;;;5.32;4.45;;;8.20;99.90;;;;;;4979828;28;20169;-77
2023/04/19 01:35:47;;;;;;;5.13;3.60;;;8.10;99.90;;;;;;4997495;28;20486;-79
2023/04/19 01:38:13;;;;;;;9.18;3.92;;;8.10;99.90;;;;;;4979465;28;20027;-75
2023/04/19 01:40:38;;;;;;;6.88;3.70;;;8.10;99.90;;;;;;4997365;28;20049;-76
2023/04/19 01:43:06;;;;;;;7.35;3.90;;;8.00;99.90;;;;;;4997528;28;20144;-77
2023/04/19 01:45:32;;;;;;;4.63;3.35;;;8.00;99.90;;;;;;4997113;28;20030;-77
2023/04/19 01:48:00;;;;;;;6.20;3.47;;;8.00;99.90;;;;;;4981357;28;20058;-78
2023/04/19 01:50:26;;;;;;;5.38;3.38;;;8.00;99.90;;;;;;4999178;28;20498;-79
2023/04/19 01:52:52;;;;;;;3.72;3.05;;;7.90;99.90;;;;;;4999677;28;20050;-77
2023/04/19 01:55:17;;;;;;;3.55;2.70;;;7.90;99.90;;;;;;5000981;28;20022;-77
2023/04/19 01:57:43;;;;;;;4.05;3.30;;;7.90;99.90;;;;;;4998698;28;20368;-75
2023/04/19 02:00:10;;;;;;;4.18;3.38;;;7.80;99.90;;;;;;4996865;28;20116;-76
2023/04/19 02:02:37;;;;;;;5.93;3.05;;;7.80;99.90;;;;;;4997015;28;20030;-78
2023/04/19 02:05:04;;;;;;;9.93;4.18;;;7.90;99.90;;;;;;4978926;28;20072;-78
2023/04/19 02:07:30;;;;;;;6.00;3.88;;;7.90;99.90;;;;;;4979141;28;20034;-78
2023/04/19 02:09:58;;;;;;;6.95;3.95;;;7.90;99.90;;;;;;4979157;28;20048;-77
2023/04/19 02:12:27;;;;;;;8.35;4.18;;;7.90;99.90;;;;;;4996454;28;20018;-77
2023/04/19 02:14:56;;;;;;;4.10;3.50;;;7.90;99.90;;;;;;4995768;28;20054;-77
2023/04/19 02:17:22;;;;;;;6.45;4.18;;;8.10;99.90;;;;;;4996041;28;20046;-77
2023/04/19 02:19:48;;;;;;;5.10;3.83;;;8.10;99.90;;;;;;4979031;28;20169;-77
2023/04/19 02:22:13;;;;;;;8.45;4.35;;;8.20;99.90;;;;;;4996588;28;20074;-75
2023/04/19 02:24:39;;;;;;;5.32;3.63;;;8.20;99.90;;;;;;4978225;28;20026;-77
2023/04/19 02:27:05;;;;;;;6.30;4.35;;;8.20;99.90;;;;;;4978689;28;20069;-77
2023/04/19 02:29:31;;;;;;;5.15;3.33;;;8.20;99.90;;;;;;4978432;28;20030;-76
2023/04/19 02:31:57;;;;;;;9.60;4.47;;;8.10;99.90;;;;;;4995971;28;20026;-77
2023/04/19 02:34:22;;;;;;;4.72;3.45;;;8.00;99.90;;;;;;4978258;28;20025;-78
2023/04/19 02:36:48;;;;;;;6.55;3.42;;;8.00;99.90;;;;;;4978632;28;20029;-78
2023/04/19 02:39:14;;;;;;;7.32;3.38;;;8.10;99.90;;;;;;4996092;28;20018;-79
2023/04/19 02:41:40;;;;;;;5.68;4.03;;;8.00;99.90;;;;;;4978583;28;20114;-79
2023/04/19 02:44:05;;;;;;;4.13;2.88;;;7.90;99.90;;;;;;4978524;28;20489;-77
2023/04/19 02:46:31;;;;;;;5.32;3.92;;;7.80;99.90;;;;;;4995287;28;20105;-77
2023/04/19 02:48:59;;;;;;;5.72;3.20;;;7.80;99.90;;;;;;4995587;28;20102;-75
2023/04/19 02:51:25;;;;;;;4.13;3.25;;;7.70;99.90;;;;;;4978674;28;20026;-77
2023/04/19 02:53:51;;;;;;;8.77;3.10;;;7.70;99.90;;;;;;4977858;28;20029;-75
2023/04/19 02:56:17;;;;;;;5.22;3.05;;;7.60;99.90;;;;;;4978265;28;20022;-76
2023/04/19 02:58:43;;;;;;;6.45;3.00;;;7.60;99.90;;;;;;4978013;28;20029;-77
2023/04/19 03:01:09;;;;;;;6.85;3.10;;;7.50;99.90;;;;;;4995661;28;20101;-76
2023/04/19 03:03:35;;;;;;;5.13;3.65;;;7.50;99.90;;;;;;4995796;28;20033;-77
2023/04/19 03:06:00;;;;;;;3.90;3.03;;;7.40;99.90;;;;;;4978229;28;20113;-77
2023/04/19 03:08:26;;;;;;;4.55;3.20;;;7.40;99.90;;;;;;4978320;28;20026;-78
2023/04/19 03:10:52;;;;;;;5.97;3.80;;;7.40;99.90;;;;;;4978221;28;20034;-77
2023/04/19 03:13:17;;;;;;;5.72;2.90;;;7.30;99.90;;;;;;4994838;28;20027;-74
2023/04/19 03:15:43;;;;;;;5.50;2.85;;;7.30;99.90;;;;;;4977774;28;20037;-75
2023/04/19 03:18:09;;;;;;;13.63;3.90;;;7.30;99.90;;;;;;4994754;28;20125;-77
2023/04/19 03:20:34;;;;;;;4.75;2.83;;;7.30;99.90;;;;;;4995327;28;20029;-77
2023/04/19 03:23:00;;;;;;;8.57;2.88;;;7.20;99.90;;;;;;4995466;28;20117;-77
2023/04/19 03:25:26;;;;;;;4.72;3.10;;;7.10;99.90;;;;;;5013402;23;20043;-75
2023/04/19 03:27:51;;;;;;;11.13;3.58;;;7.00;99.90;;;;;;4974986;28;20496;-75
2023/04/19 03:30:17;;;;;;;5.45;3.25;;;7.00;99.90;;;;;;4975270;28;20055;-75
2023/04/19 03:32:43;;;;;;;4.80;3.05;;;6.90;99.90;;;;;;4993148;28;20024;-75
2023/04/19 03:35:09;;;;;;;5.63;3.20;;;7.00;99.90;;;;;;4992192;28;20026;-75
2023/04/19 03:37:35;;;;;;;6.95;3.40;;;7.00;99.90;;;;;;4992382;28;20046;-75
2023/04/19 03:40:00;;;;;;;8.90;3.03;;;7.00;99.90;;;;;;4991592;28;20093;-75
2023/04/19 03:42:26;;;;;;;4.20;2.80;;;7.00;99.90;;;;;;4992612;28;20102;-75
2023/04/19 03:44:51;;;;;;;6.20;3.53;;;6.90;99.90;;;;;;4992298;28;20034;-75
2023/04/19 03:47:17;;;;;;;4.88;2.65;;;6.80;99.90;;;;;;4992142;28;20026;-75
2023/04/19 03:49:43;;;;;;;4.28;2.90;;;6.70;99.90;;;;;;4992403;28;20097;-75
2023/04/19 03:52:08;;;;;;;4.88;3.10;;;6.80;99.90;;;;;;4973558;28;20371;-76
2023/04/19 03:54:34;;;;;;;3.33;2.30;;;6.70;99.90;;;;;;4992123;28;20487;-75
2023/04/19 03:57:00;;;;;;;7.32;2.67;;;6.60;99.90;;;;;;4974972;28;20026;-75
2023/04/19 03:59:26;;;;;;;3.17;2.63;;;6.50;99.90;;;;;;4992070;28;20014;-75
2023/04/19 04:01:51;;;;;;;5.38;2.95;;;6.40;99.90;;;;;;4975029;28;20026;-75
2023/04/19 04:04:17;;;;;;;5.43;3.28;;;6.50;99.90;;;;;;4974904;28;20537;-75
2023/04/19 04:06:43;;;;;;;5.93;3.42;;;6.70;99.90;;;;;;4974416;28;20026;-74
2023/04/19 04:09:08;;;;;;;5.88;3.53;;;6.60;99.90;;;;;;4991998;28;20061;-75
2023/04/19 04:11:34;;;;;;;6.00;3.53;;;6.50;99.90;;;;;;4974829;28;20569;-75
2023/04/19 04:14:00;;;;;;;8.18;4.47;;;6.50;99.90;;;;;;4992426;28;20065;-75
2023/04/19 04:16:25;;;;;;;5.57;4.15;;;6.50;99.90;;;;;;4974427;28;20018;-75
2023/04/19 04:18:51;;;;;;;7.72;4.57;;;6.40;99.90;;;;;;4991484;28;20026;-75
2023/04/19 04:21:17;;;;;;;7.05;4.18;;;6.50;99.90;;;;;;4977893;28;20061;-75
2023/04/19 04:23:42;;;;;;;8.70;3.63;;;6.90;99.90;;;;;;4978708;28;20030;-73
2023/04/19 04:26:08;;;;;;;18.67;4.15;;;6.80;99.90;;;;;;4995013;28;20523;-73
2023/04/19 04:28:35;;;;;;;5.85;3.95;;;6.70;99.90;;;;;;4995151;28;20497;-74
2023/04/19 04:31:01;;;;;;;9.35;5.45;;;6.70;99.90;;;;;;4979274;28;20406;-75
2023/04/19 04:33:27;;;;;;;5.78;4.07;;;6.70;99.90;;;;;;4979539;28;20026;-75
2023/04/19 04:35:54;;;;;;;6.93;4.85;;;6.70;99.90;;;;;;4977893;28;20026;-75
2023/04/19 04:38:20;;;;;;;10.40;5.78;;;6.70;99.90;;;;;;4995331;28;20034;-75
2023/04/19 04:40:52;;;;;;;8.00;4.45;;;6.70;99.90;;;;;;4996002;28;20026;-75
2023/04/19 04:43:21;;;;;;;11.65;4.85;;;6.80;99.90;;;;;;4976504;28;20053;-75
2023/04/19 04:45:47;;;;;;;5.82;3.90;;;6.80;99.90;;;;;;4995203;28;20026;-75
2023/04/19 04:48:13;;;;;;;5.38;3.45;;;6.70;99.90;;;;;;4995362;28;20049;-75
2023/04/19 04:50:39;;;;;;;8.65;4.15;;;6.80;99.90;;;;;;4977985;28;20050;-75
2023/04/19 04:53:04;;;;;;;11.50;4.70;;;6.90;99.90;;;;;;4995448;28;20026;-75
2023/04/19 04:55:30;;;;;;;9.48;4.18;;;7.00;99.90;;;;;;4995357;28;20111;-74
2023/04/19 04:57:56;;;;;;;7.18;4.25;;;7.00;99.90;;;;;;4977633;28;20037;-75
2023/04/19 05:00:22;;;;;;;6.47;4.20;;;7.00;99.90;;;;;;4978005;28;20084;-76
2023/04/19 05:02:48;;;;;;;6.28;4.53;;;7.00;99.90;;;;;;4995485;28;20109;-74
2023/04/19 05:05:14;;;;;;;5.75;4.57;;;7.10;99.90;;;;;;4994934;28;20069;-75
2023/04/19 05:07:39;;;;;;;11.00;5.15;;;7.20;99.90;;;;;;4995011;28;20106;-75
2023/04/19 05:10:06;;;;;;;8.10;5.00;;;7.30;99.90;;;;;;4995181;28;20031;-75
2023/04/19 05:12:32;;;;;;;8.90;5.07;;;7.20;99.90;;;;;;4995146;28;20452;-75
2023/04/19 05:14:58;;;;;;;8.25;4.88;;;7.30;99.90;;;;;;4994772;28;20045;-75
2023/04/19 05:17:23;;;;;;;7.53;3.70;;;7.40;99.90;;;;;;4994680;28;20097;-75
2023/04/19 05:19:49;;;;;;;8.88;4.55;;;7.40;99.90;;;;;;4993342;28;20034;-75
2023/04/19 05:22:15;;;;;;;6.82;4.60;;;7.40;99.90;;;;;;4977671;28;20372;-75
2023/04/19 05:24:41;;;;;;;6.45;4.40;;;7.40;99.90;;;;;;4994782;28;20035;-74
2023/04/19 05:27:06;;;;;;;9.32;4.78;;;7.50;99.90;;;;;;4995443;28;20121;-75
2023/04/19 05:29:32;;;;;;;9.50;5.10;;;7.50;99.90;;;;;;4976865;28;20076;-75
2023/04/19 05:31:58;;;;;;;7.47;4.82;;;7.60;99.90;;;;;;4993838;28;20022;-75
2023/04/19 05:34:24;;;;;;;6.07;3.90;;;7.60;99.90;;;;;;4977478;28;20026;-75
2023/04/19 05:36:49;;;;;;;7.95;5.10;;;7.70;99.90;;;;;;4976971;28;20027;-75
2023/04/19 05:39:16;;;;;;;6.80;4.68;;;7.80;99.90;;;;;;4994412;28;20050;-75
2023/04/19 05:41:41;;;;;;;7.30;4.70;;;7.90;99.90;;;;;;4994612;28;20030;-75
2023/04/19 05:44:07;;;;;;;9.50;4.78;;;7.90;99.90;;;;;;4994454;28;20113;-75
2023/04/19 05:46:33;;;;;;;7.82;5.43;;;8.00;99.90;;;;;;4994044;28;20034;-75
2023/04/19 05:48:59;;;;;;;9.27;6.43;;;8.20;99.90;;;;;;4994200;28;20390;-75
2023/04/19 05:51:24;;;;;;;9.00;4.70;;;8.20;99.90;;;;;;4995029;28;20034;-75
2023/04/19 05:53:52;;;;;;;6.63;4.45;;;8.30;99.90;;;;;;4994499;28;20034;-74
2023/04/19 05:56:17;;;;;;;7.35;5.43;;;8.50;99.90;;;;;;4994204;28;20029;-75
2023/04/19 05:58:43;;;;;;;7.43;4.30;;;8.50;99.90;;;;;;4993834;28;20099;-75
2023/04/19 06:01:09;;;;;;;7.50;4.13;;;8.50;99.90;;;;;;4994361;28;20116;-75
2023/04/19 06:03:35;;;;;;;12.20;4.85;;;8.70;99.90;;;;;;4993891;28;20403;-74
2023/04/19 06:06:00;;;;;;;8.60;5.13;;;8.90;99.90;;;;;;4993944;28;20084;-75
2023/04/19 06:08:26;;;;;;;8.15;5.90;;;9.00;99.90;;;;;;4993759;28;20507;-75
2023/04/19 06:10:53;;;;;;;9.32;5.93;;;9.10;99.90;;;;;;4976722;28;20033;-75
2023/04/19 06:13:19;;;;;;;7.40;5.25;;;9.30;99.90;;;;;;4976407;28;20028;-75
2023/04/19 06:15:45;;;;;;;10.15;5.45;;;9.40;99.90;;;;;;4993701;28;20018;-75
2023/04/19 06:18:11;;;;;;;7.10;5.90;;;9.70;99.90;;;;;;4976096;28;20077;-75
2023/04/19 06:20:38;;;;;;;15.15;5.68;;;9.80;99.90;;;;;;4993116;28;20022;-75
2023/04/19 06:23:04;;;;;;;11.07;6.07;;;9.90;99.90;;;;;;4993757;28;20117;-75
2023/04/19 06:25:30;;;;;;;10.30;5.53;;;9.90;99.90;;;;;;4993328;28;20042;-75
2023/04/19 06:27:56;;;;;;;13.95;7.07;;;10.00;99.90;;;;;;4993396;28;20023;-75
2023/04/19 06:30:22;;;;;;;11.20;5.72;;;10.00;99.90;;;;;;4993898;28;20026;-75
2023/04/19 06:32:47;;;;;;;6.85;5.10;;;10.10;99.90;;;;;;4994263;28;20032;-75
2023/04/19 06:35:14;;;;;;;7.03;4.68;;;10.10;99.90;;;;;;4993861;28;20389;-75
2023/04/19 06:37:39;;;;;;;6.85;4.95;;;10.10;99.90;;;;;;4976277;28;20483;-74
2023/04/19 06:40:07;;;;;;;6.82;5.40;;;10.20;99.90;;;;;;4994252;28;20215;-75
2023/04/19 06:42:33;;;;;;;8.25;6.28;;;10.40;99.90;;;;;;4976494;28;20030;-75
2023/04/19 06:44:59;;;;;;;7.78;5.25;;;10.60;99.90;;;;;;4994305;28;20113;-75
2023/04/19 06:47:25;;;;;;;7.15;4.45;;;10.70;99.90;;;;;;4993332;28;20030;-75
2023/04/19 06:49:51;;;;;;;5.47;4.47;;;10.70;99.90;;;;;;4993529;28;20033;-75
2023/04/19 06:52:16;;;;;;;9.73;4.82;;;10.80;99.90;;;;;;4993459;28;20442;-75
2023/04/19 06:54:47;;;;;;;6.90;4.47;;;10.80;99.90;;;;;;4992748;28;20032;-75
2023/04/19 06:57:13;;;;;;;6.40;4.97;;;10.90;99.90;;;;;;4975779;28;20026;-75
2023/04/19 06:59:38;;;;;;;8.40;5.03;;;11.20;99.90;;;;;;4993533;28;20018;-75
2023/04/19 07:02:05;;;;;;;6.28;4.93;;;11.20;99.90;;;;;;4993666;28;20109;-75
2023/04/19 07:04:30;;;;;;;5.90;4.43;;;11.30;99.90;;;;;;4975825;28;20019;-75
2023/04/19 07:06:56;;;;;;;6.55;4.35;;;11.10;99.90;;;;;;4975135;28;20029;-76
2023/04/19 07:09:21;;;;;;;6.05;5.15;;;11.20;99.90;;;;;;4992455;28;20023;-75
2023/04/19 07:11:47;;;;;;;6.80;4.85;;;11.10;99.90;;;;;;4994332;28;20035;-75
2023/04/19 07:14:13;;;;;;;5.85;4.28;;;11.20;99.90;;;;;;4993005;28;20034;-75
2023/04/19 07:16:40;;;;;;;6.15;4.65;;;11.20;99.90;;;;;;4992633;28;20018;-75
2023/04/19 07:19:06;;;;;;;15.27;8.40;;;11.30;99.90;;;;;;4974776;28;20034;-75
2023/04/19 07:21:33;;;;;;;14.15;8.85;;;11.50;99.90;;;;;;4992258;28;20030;-76
2023/04/19 07:23:59;;;;;;;14.25;7.88;;;11.50;99.90;;;;;;4992751;28;20109;-76
2023/04/19 07:26:25;;;;;;;8.50;6.57;;;11.50;99.90;;;;;;4974774;28;20113;-76
2023/04/19 07:28:50;;;;;;;10.55;6.95;;;11.60;99.90;;;;;;4992338;28;20050;-76
2023/04/19 07:31:17;;;;;;;9.05;7.25;;;11.60;99.90;;;;;;4992615;28;20029;-76
2023/04/19 07:33:43;;;;;;;8.98;6.22;;;11.80;99.90;;;;;;4992456;28;20387;-75
2023/04/19 07:36:09;;;;;;;10.13;6.70;;;11.80;99.90;;;;;;4992138;28;20018;-76
2023/04/19 07:38:35;;;;;;;12.43;6.35;;;11.90;99.90;;;;;;4992405;28;20073;-76
2023/04/19 07:41:01;;;;;;;11.65;7.43;;;11.90;99.90;;;;;;4975043;28;20449;-76
2023/04/19 07:43:29;;;;;;;9.30;6.88;;;12.00;99.90;;;;;;4975016;28;20031;-76
2023/04/19 07:45:54;;;;;;;8.65;6.00;;;12.20;99.90;;;;;;4974474;28;20022;-76
2023/04/19 07:48:20;;;;;;;9.57;5.53;;;12.20;99.90;;;;;;4974484;28;20026;-76
2023/04/19 07:50:46;;;;;;;9.63;6.22;;;12.20;99.90;;;;;;4992310;28;20517;-76
2023/04/19 07:53:11;;;;;;;9.20;6.55;;;12.30;99.90;;;;;;4974857;28;20045;-76
2023/04/19 07:55:37;;;;;;;10.00;6.35;;;12.40;99.90;;;;;;4975940;28;20045;-76
2023/04/19 07:58:03;;;;;;;10.30;7.78;;;12.40;99.90;;;;;;4978687;28;20022;-76
2023/04/19 08:00:28;;;;;;;8.98;5.70;;;12.40;99.90;;;;;;4996203;28;20026;-75
2023/04/19 08:02:55;;;;;;;7.53;6.55;;;12.50;99.90;;;;;;4978527;28;20399;-73
2023/04/19 08:05:22;;;;;;;14.93;11.23;;;12.60;99.90;;;;;;4995568;28;20438;-77
2023/04/19 08:07:48;;;;;;;16.73;11.18;;;12.80;99.90;;;;;;4995849;28;20023;-75
2023/04/19 08:10:14;;;;;;;12.25;10.13;;;12.60;99.90;;;;;;4995798;28;20085;-76
2023/04/19 08:12:40;;;;;;;11.32;9.57;;;12.80;99.90;;;;;;4995946;28;20022;-75
2023/04/19 08:15:07;;;;;;;11.25;7.00;;;12.80;99.90;;;;;;4993677;28;20023;-75
2023/04/19 08:17:33;;;;;;;7.65;5.40;;;12.80;99.90;;;;;;4994873;28;20390;-75
2023/04/19 08:19:59;;;;;;;10.13;6.15;;;12.50;99.90;;;;;;4993194;28;20035;-82
2023/04/19 08:22:25;;;;;;;12.10;7.20;;;12.40;99.90;;;;;;5004297;28;20046;-82
2023/04/19 08:24:52;;;;;;;8.32;6.20;;;12.30;99.90;;;;;;4986410;28;20065;-82
2023/04/19 08:27:18;;;;;;;8.70;5.38;;;12.30;99.90;;;;;;4983169;28;20639;-75
2023/04/19 08:29:44;;;;;;;7.72;5.97;;;12.20;99.90;;;;;;4994964;28;20509;-77
2023/04/19 08:32:11;;;;;;;12.50;8.30;;;12.20;99.90;;;;;;4978000;28;20026;-76
2023/04/19 08:34:38;;;;;;;11.85;7.75;;;12.30;99.90;;;;;;4995427;28;20033;-75
2023/04/19 08:37:04;;;;;;;11.85;8.27;;;12.30;99.90;;;;;;4995071;28;20026;-76
2023/04/19 08:39:31;;;;;;;7.93;6.53;;;12.30;99.90;;;;;;4993346;28;20023;-75
2023/04/19 08:42:06;;;;;;;9.80;5.85;;;12.30;99.90;;;;;;4994630;28;20110;-75
2023/04/19 08:44:32;;;;;;;11.05;6.50;;;13.20;99.90;;;;;;4976849;28;20076;-74
2023/04/19 08:46:59;;;;;;;10.20;7.18;;;12.10;99.90;;;;;;4977024;28;20022;-73
2023/04/19 08:49:27;;;;;;;9.18;6.13;;;12.10;99.90;;;;;;4994279;28;20019;-73
2023/04/19 08:51:54;;;;;;;8.65;6.65;;;12.00;99.90;;;;;;4994453;28;20030;-73
2023/04/19 08:54:21;;;;;;;10.35;7.88;;;12.10;99.90;;;;;;4994478;28;20475;-73
2023/04/19 08:56:46;;;;;;;8.00;6.22;;;12.00;99.90;;;;;;4993985;28;20026;-73
2023/04/19 08:59:13;;;;;;;13.77;7.35;;;12.00;99.90;;;;;;4994175;28;20030;-73
2023/04/19 09:01:39;;;;;;;15.35;7.85;;;12.00;99.90;;;;;;4977993;28;20058;-73
2023/04/19 09:04:06;;;;;;;12.20;7.68;;;12.00;99.90;;;;;;4992600;28;20430;-73
2023/04/19 09:06:39;;;;;;;11.50;7.22;;;12.00;99.90;;;;;;4993907;28;20100;-74
2023/04/19 09:09:16;;;;;;;12.60;7.00;;;12.00;99.90;;;;;;4994607;28;20100;-73
2023/04/19 09:11:42;;;;;;;14.10;8.10;;;12.10;99.90;;;;;;4995123;28;20030;-73
2023/04/19 09:14:13;;;;;;;13.65;9.68;;;12.20;99.90;;;;;;4994669;28;20602;-73
2023/04/19 09:16:38;;;;;;;26.30;8.25;;;12.30;99.90;;;;;;4976753;28;20022;-75
2023/04/19 09:19:05;;;;;;;14.18;7.20;;;12.30;99.90;;;;;;4993929;28;20101;-73
2023/04/19 09:21:31;;;;;;;9.00;6.15;;;12.40;99.90;;;;;;4994533;28;20062;-73
2023/04/19 09:23:58;;;;;;;10.77;6.43;;;12.50;99.90;;;;;;4994526;28;20034;-74
2023/04/19 09:26:28;;;;;;;8.20;6.10;;;12.40;99.90;;;;;;5013416;22;20050;-76
2023/04/19 09:29:01;;;;;;;11.02;6.82;;;12.40;99.90;;;;;;4994449;28;20442;-76
2023/04/19 09:31:29;;;;;;;12.15;7.85;;;12.60;99.90;;;;;;4996162;28;20054;-77
2023/04/19 09:33:55;;;;;;;8.32;6.80;;;12.70;99.90;;;;;;4995971;28;20049;-76
2023/04/19 09:36:31;;;;;;;12.73;8.27;;;12.60;99.90;;;;;;4994112;28;20479;-75
2023/04/19 09:38:57;;;;;;;14.77;9.52;;;12.80;99.90;;;;;;4976271;28;20113;-75
2023/04/19 09:41:24;;;;;;;17.20;8.30;;;13.30;99.90;;;;;;4993975;28;20041;-76
2023/04/19 09:43:51;;;;;;;14.30;8.23;;;13.40;99.90;;;;;;4993851;28;20026;-76
2023/04/19 09:46:32;;;;;;;11.15;8.13;;;13.50;99.90;;;;;;4976400;28;20028;-75
2023/04/19 09:49:16;;;;;;;12.98;8.60;;;13.40;99.90;;;;;;4976941;28;20026;-77
2023/04/19 09:51:49;;;;;;;13.55;8.68;;;13.50;99.90;;;;;;4994260;28;20026;-77
2023/04/19 09:54:17;;;;;;;11.15;6.63;;;13.30;99.90;;;;;;4994210;28;20494;-75
2023/04/19 09:56:43;;;;;;;8.75;6.25;;;13.30;99.90;;;;;;4976688;28;20034;-75
2023/04/19 09:59:09;;;;;;;12.27;8.63;;;13.30;99.90;;;;;;4975933;28;20118;-76
2023/04/19 10:01:39;;;;;;;16.10;10.48;;;13.40;99.90;;;;;;4994352;28;20050;-76
2023/04/19 10:04:06;;;;;;;13.38;8.00;;;13.20;99.90;;;;;;4994113;28;20018;-75
2023/04/19 10:06:33;;;;;;;9.98;6.80;;;13.30;99.90;;;;;;4977144;28;20030;-76
2023/04/19 10:09:04;;;;;;;9.23;6.25;;;13.20;99.90;;;;;;4993824;28;20449;-75
2023/04/19 10:11:37;;;;;;;6.47;5.28;;;13.10;99.90;;;;;;4994218;28;20031;-76
2023/04/19 10:14:06;;;;;;;13.32;8.98;;;13.00;99.90;;;;;;4976628;28;20527;-75
2023/04/19 10:16:33;;;;;;;10.80;6.60;;;13.20;99.90;;;;;;4993643;28;20445;-76
2023/04/19 10:19:01;;;;;;;37.65;17.02;;;13.20;99.90;;;;;;4975417;28;20033;-76
2023/04/19 10:21:28;;;;;;;18.20;10.55;;;13.10;99.90;;;;;;4993926;28;20398;-76
2023/04/19 10:23:55;;;;;;;8.23;6.20;;;13.00;99.90;;;;;;4976438;28;20169;-76
2023/04/19 10:26:21;;;;;;;9.27;6.90;;;12.90;99.90;;;;;;4992478;28;20042;-76
2023/04/19 10:28:47;;;;;;;12.10;7.82;;;12.90;99.90;;;;;;4994346;28;20026;-78
2023/04/19 10:31:13;;;;;;;13.85;8.35;;;12.90;99.90;;;;;;4993486;28;20069;-76
2023/04/19 10:33:40;;;;;;;14.80;8.80;;;13.00;99.90;;;;;;4993547;28;20081;-76
2023/04/19 10:36:13;;;;;;;24.55;15.35;;;13.00;99.90;;;;;;4975695;28;20029;-76
2023/04/19 10:38:54;;;;;;;13.05;8.25;;;13.10;99.90;;;;;;4993469;28;20045;-76
2023/04/19 10:41:20;;;;;;;13.43;8.60;;;13.10;99.90;;;;;;4975982;28;20022;-76
2023/04/19 10:43:50;;;;;;;10.52;7.75;;;13.10;99.90;;;;;;4994132;28;20023;-74
2023/04/19 10:46:36;;;;;;;14.95;8.15;;;13.00;99.90;;;;;;4993210;28;20033;-77
2023/04/19 10:49:03;;;;;;;8.82;6.07;;;13.00;99.90;;;;;;4993311;28;20053;-75
2023/04/19 10:51:43;;;;;;;10.82;7.78;;;13.10;99.90;;;;;;4976190;28;20026;-77
2023/04/19 10:54:30;;;;;;;11.45;7.35;;;13.20;99.90;;;;;;4976919;28;20105;-74
2023/04/19 10:57:04;;;;;;;9.93;7.28;;;13.30;99.90;;;;;;4994385;28;20499;-76
2023/04/19 10:59:37;;;;;;;18.63;10.48;;;13.40;99.90;;;;;;4992974;28;20053;-76
2023/04/19 11:02:21;;;;;;;10.48;5.22;;;13.60;99.90;;;;;;4976116;28;20030;-76
2023/04/19 11:04:49;;;;;;;6.90;5.57;;;13.50;99.90;;;;;;4992831;28;20018;-76
2023/04/19 11:07:22;;;;;;;7.00;4.85;;;13.40;99.90;;;;;;4992397;28;20026;-76
2023/04/19 11:09:49;;;;;;;7.57;5.60;;;13.40;99.90;;;;;;4992688;28;20027;-76
2023/04/19 11:12:18;;;;;;;7.18;5.38;;;13.50;99.90;;;;;;4975084;28;20034;-75
2023/04/19 11:14:45;;;;;;;10.70;5.45;;;13.50;99.90;;;;;;4991005;28;20018;-75
2023/04/19 11:17:25;;;;;;;7.88;5.82;;;13.40;99.90;;;;;;4992647;28;20023;-76
2023/04/19 11:19:58;;;;;;;9.05;5.25;;;13.60;99.90;;;;;;4975873;28;20029;-76
2023/04/19 11:22:35;;;;;;;10.65;5.65;;;13.40;99.90;;;;;;4992624;28;20077;-75
2023/04/19 11:25:11;;;;;;;8.80;6.93;;;13.40;99.90;;;;;;4991755;28;20023;-75
2023/04/19 11:27:37;;;;;;;8.77;5.20;;;13.60;99.90;;;;;;4974282;28;20085;-76
2023/04/19 11:30:09;;;;;;;9.38;6.72;;;13.60;99.90;;;;;;4990876;28;20674;-76
2023/04/19 11:32:35;;;;;;;12.32;8.75;;;13.40;99.90;;;;;;4974181;28;20077;-76
2023/04/19 11:35:06;;;;;;;10.85;7.60;;;13.40;99.90;;;;;;4974469;28;20395;-76
2023/04/19 11:37:36;;;;;;;9.32;7.50;;;13.30;99.90;;;;;;4974370;28;20076;-75
2023/04/19 11:40:03;;;;;;;9.85;7.05;;;13.40;99.90;;;;;;4992023;28;20112;-76
2023/04/19 11:42:29;;;;;;;9.75;7.00;;;13.30;99.90;;;;;;4992150;28;20022;-76
2023/04/19 11:44:57;;;;;;;10.25;6.35;;;13.30;99.90;;;;;;4974563;28;20027;-76
2023/04/19 11:47:23;;;;;;;10.98;7.47;;;13.30;99.90;;;;;;4974613;28;20026;-76
2023/04/19 11:49:49;;;;;;;9.38;7.07;;;13.40;99.90;;;;;;4991987;28;20102;-76
2023/04/19 11:52:23;;;;;;;9.00;7.30;;;13.20;99.90;;;;;;4974074;28;20114;-75
2023/04/19 11:54:52;;;;;;;6.30;5.40;;;13.30;99.90;;;;;;4991357;28;20025;-77
2023/04/19 11:57:29;;;;;;;9.95;5.95;;;13.20;99.90;;;;;;4991619;28;20030;-76
2023/04/19 12:00:05;;;;;;;7.78;5.65;;;13.30;99.90;;;;;;4974657;28;20073;-76
2023/04/19 12:02:39;;;;;;;5.80;5.05;;;13.50;99.90;;;;;;4992036;28;20022;-75
2023/04/19 12:05:15;;;;;;;5.57;5.07;;;13.70;99.90;;;;;;4974088;28;20050;-75
2023/04/19 12:08:09;;;;;;;5.53;3.70;;;13.70;99.90;;;;;;4991749;28;20081;-76
2023/04/19 12:10:35;;;;;;;6.90;4.18;;;13.70;99.90;;;;;;4991763;28;20426;-76
2023/04/19 12:13:15;;;;;;;5.35;3.63;;;13.90;99.90;;;;;;4992376;28;20070;-77
2023/04/19 12:15:45;;;;;;;4.97;3.42;;;13.90;99.90;;;;;;4974301;28;20023;-76
2023/04/19 12:18:11;;;;;;;5.30;3.45;;;13.90;99.90;;;;;;4974373;28;20422;-76
2023/04/19 12:20:42;;;;;;;5.18;2.58;;;13.90;99.90;;;;;;4974508;28;20558;-76
2023/04/19 12:23:12;;;;;;;5.88;3.17;;;13.80;99.90;;;;;;4975427;28;20488;-75
2023/04/19 12:25:39;;;;;;;4.40;2.80;;;13.80;99.90;;;;;;4991763;28;20077;-76
2023/04/19 12:28:04;;;;;;;2.90;2.60;;;14.00;99.90;;;;;;4991490;28;20519;-76
2023/04/19 12:30:30;;;;;;;3.13;2.58;;;14.00;99.90;;;;;;4974495;28;20026;-76
2023/04/19 12:32:56;;;;;;;2.50;2.30;;;14.00;99.90;;;;;;4992173;28;20027;-76
2023/04/19 12:35:24;;;;;;;7.13;4.65;;;14.10;99.90;;;;;;4973912;28;20018;-75
2023/04/19 12:37:53;;;;;;;3.22;2.10;;;14.10;99.90;;;;;;4991365;28;20042;-76
2023/04/19 12:40:19;;;;;;;3.75;2.97;;;14.00;99.90;;;;;;4974256;28;20030;-76
2023/04/19 12:42:45;;;;;;;2.72;2.13;;;14.20;99.90;;;;;;4994381;28;20041;-76
2023/04/19 12:45:12;;;;;;;2.03;1.60;;;14.20;99.90;;;;;;4995099;28;20109;-76
2023/04/19 12:47:38;;;;;;;1.80;1.50;;;14.30;99.50;;;;;;4977614;28;20514;-76